Time;durP1;ratioP1;P1;durP2;ratioP2;P2;SDS_P1;SDS_P2;PMS_P1;PMS_P2;Temp;Humidity;BMP_temperature;BMP_pressure;BME280_temperature;BME280_humidity;BME280_pressure;Samples;Min_cycle;Max_cycle;Signal;HPM_P1;HPM_P2
2023/01/14 00:00:28;;;;;;;4.47;1.80;;;7.60;99.90;;;;;;5104586;28;20214;-82
2023/01/14 00:02:54;;;;;;;4.63;1.65;;;7.60;99.90;;;;;;5095896;28;20230;-82
2023/01/14 00:05:23;;;;;;;4.70;1.85;;;7.70;99.90;;;;;;5108204;28;20217;-83
2023/01/14 00:07:49;;;;;;;6.53;1.65;;;7.80;99.90;;;;;;5098671;28;20183;-84
2023/01/14 00:10:17;;;;;;;2.10;1.38;;;7.80;99.90;;;;;;5098320;28;20198;-82
2023/01/14 00:12:43;;;;;;;1.90;1.45;;;7.90;99.90;;;;;;5095331;28;20217;-81
2023/01/14 00:15:11;;;;;;;6.80;2.10;;;7.80;99.90;;;;;;5087723;28;20230;-83
2023/01/14 00:17:38;;;;;;;2.42;1.42;;;7.80;99.90;;;;;;5096098;28;20207;-81
2023/01/14 00:20:06;;;;;;;4.35;2.22;;;7.80;99.90;;;;;;5084721;28;20237;-82
2023/01/14 00:22:34;;;;;;;6.63;1.45;;;7.80;99.90;;;;;;5076558;28;20262;-82
2023/01/14 00:25:01;;;;;;;3.30;1.70;;;7.70;99.90;;;;;;5088284;28;20289;-82
2023/01/14 00:27:28;;;;;;;2.97;1.60;;;7.60;99.90;;;;;;5083109;28;20227;-82
2023/01/14 00:29:54;;;;;;;4.88;1.75;;;7.60;99.90;;;;;;5071224;28;20234;-81
2023/01/14 00:32:21;;;;;;;5.30;1.52;;;7.60;99.90;;;;;;5088597;28;20209;-82
2023/01/14 00:34:48;;;;;;;8.15;1.73;;;7.60;99.90;;;;;;5089055;28;20234;-81
2023/01/14 00:37:15;;;;;;;3.75;1.88;;;7.60;99.90;;;;;;5090635;28;20233;-81
2023/01/14 00:39:43;;;;;;;2.22;1.50;;;7.60;99.90;;;;;;5084807;28;20234;-82
2023/01/14 00:42:10;;;;;;;6.15;1.70;;;7.60;99.90;;;;;;5083373;28;20660;-82
2023/01/14 00:44:37;;;;;;;4.80;2.60;;;7.50;99.90;;;;;;5085456;28;20234;-82
2023/01/14 00:47:04;;;;;;;3.50;1.40;;;7.60;99.90;;;;;;5083596;28;20257;-82
2023/01/14 00:49:31;;;;;;;5.35;1.77;;;7.50;99.90;;;;;;5085406;28;20233;-81
2023/01/14 00:52:00;;;;;;;7.40;1.80;;;7.50;99.90;;;;;;5078462;28;20626;-81
2023/01/14 00:54:27;;;;;;;6.15;1.60;;;7.50;99.90;;;;;;5091020;28;20198;-82
2023/01/14 00:56:56;;;;;;;7.88;2.70;;;7.50;99.90;;;;;;5091528;28;20241;-82
2023/01/14 00:59:24;;;;;;;4.32;1.95;;;7.50;99.90;;;;;;5089089;28;20294;-83
2023/01/14 01:01:54;;;;;;;2.35;1.65;;;7.60;99.90;;;;;;5085943;28;20648;-84
2023/01/14 01:04:21;;;;;;;6.70;1.73;;;7.50;99.90;;;;;;5090757;28;20258;-81
2023/01/14 01:06:48;;;;;;;3.45;1.55;;;7.70;99.90;;;;;;5087420;28;20615;-81
2023/01/14 01:09:15;;;;;;;4.65;1.80;;;7.60;99.90;;;;;;5084852;28;20603;-83
2023/01/14 01:11:41;;;;;;;4.43;1.50;;;7.60;99.90;;;;;;5076762;28;20238;-82
2023/01/14 01:14:10;;;;;;;4.18;1.63;;;7.60;99.90;;;;;;5085942;28;20221;-82
2023/01/14 01:16:37;;;;;;;2.72;1.27;;;7.60;99.90;;;;;;5080985;28;20300;-82
2023/01/14 01:19:03;;;;;;;5.78;1.48;;;7.50;99.90;;;;;;5077464;28;20203;-82
2023/01/14 01:21:30;;;;;;;5.97;1.67;;;7.50;99.90;;;;;;5082792;28;20198;-81
2023/01/14 01:23:57;;;;;;;4.32;1.73;;;7.50;99.90;;;;;;5084562;28;20230;-83
2023/01/14 01:26:25;;;;;;;2.53;1.50;;;7.40;99.90;;;;;;5093961;28;20325;-82
2023/01/14 01:28:54;;;;;;;4.20;1.95;;;7.40;99.90;;;;;;5085740;28;20301;-83
2023/01/14 01:31:23;;;;;;;5.93;1.80;;;7.50;99.90;;;;;;5089265;28;20206;-81
2023/01/14 01:33:50;;;;;;;4.65;1.85;;;7.50;99.90;;;;;;5086220;28;20210;-81
2023/01/14 01:36:20;;;;;;;7.43;1.70;;;7.40;99.90;;;;;;5083854;28;20250;-82
2023/01/14 01:38:48;;;;;;;6.78;2.35;;;7.40;99.90;;;;;;5074836;28;20294;-82
2023/01/14 01:41:17;;;;;;;2.38;1.00;;;7.30;99.90;;;;;;5081888;28;20212;-82
2023/01/14 01:43:59;;;;;;;6.60;2.00;;;7.20;99.90;;;;;;5084888;28;20310;-82
2023/01/14 01:46:28;;;;;;;6.68;1.70;;;7.20;99.90;;;;;;5082429;28;20294;-80
2023/01/14 01:48:57;;;;;;;8.50;1.75;;;7.10;99.90;;;;;;5084630;28;20297;-82
2023/01/14 01:51:27;;;;;;;10.63;1.83;;;7.10;99.90;;;;;;5089491;28;20236;-82
2023/01/14 01:53:55;;;;;;;1.70;1.30;;;7.10;99.90;;;;;;5096778;28;20241;-83
2023/01/14 01:56:25;;;;;;;4.30;1.92;;;7.10;99.90;;;;;;5100532;28;20194;-82
2023/01/14 01:58:53;;;;;;;12.30;1.92;;;7.10;99.90;;;;;;5093812;28;20262;-82
2023/01/14 02:01:20;;;;;;;4.65;2.72;;;7.10;99.90;;;;;;5078878;28;20274;-80
2023/01/14 02:03:50;;;;;;;5.57;2.13;;;7.00;99.90;;;;;;5077456;28;20283;-82
2023/01/14 02:06:18;;;;;;;7.32;1.77;;;7.10;99.90;;;;;;5087392;28;20235;-82
2023/01/14 02:08:47;;;;;;;12.02;1.95;;;7.10;99.90;;;;;;5082865;28;20576;-82
2023/01/14 02:11:31;;;;;;;7.28;2.63;;;7.10;99.90;;;;;;5092491;28;20209;-83
2023/01/14 02:14:06;;;;;;;7.72;3.25;;;7.10;99.90;;;;;;5095133;28;20243;-83
2023/01/14 02:16:46;;;;;;;3.45;1.90;;;7.10;99.90;;;;;;5070470;28;20300;-82
2023/01/14 02:19:21;;;;;;;4.70;1.80;;;7.10;99.90;;;;;;5066993;28;20632;-81
2023/01/14 02:22:08;;;;;;;4.18;1.88;;;7.10;99.90;;;;;;5082327;28;20201;-83
2023/01/14 02:25:26;;;;;;;6.22;2.58;;;7.20;99.90;;;;;;5081272;28;20229;-83
2023/01/14 02:27:55;;;;;;;4.97;1.85;;;7.20;99.90;;;;;;5087108;28;20197;-82
2023/01/14 02:30:38;;;;;;;7.47;3.00;;;7.30;99.90;;;;;;5082866;28;20225;-82
2023/01/14 02:33:31;;;;;;;5.18;2.15;;;7.30;99.90;;;;;;5084142;28;20238;-81
2023/01/14 02:36:04;;;;;;;7.72;3.53;;;7.30;99.90;;;;;;5064273;28;20597;-82
2023/01/14 02:38:40;;;;;;;12.10;4.72;;;7.30;99.90;;;;;;5084091;28;20207;-82
2023/01/14 02:41:15;;;;;;;11.23;3.67;;;7.30;99.90;;;;;;5075832;28;20273;-80
2023/01/14 02:46:36;;;;;;;11.73;4.20;;;7.40;99.90;;;;;;5082652;28;20232;-80
2023/01/14 02:49:07;;;;;;;7.85;2.78;;;7.50;99.90;;;;;;5086411;28;20275;-81
2023/01/14 02:51:35;;;;;;;7.53;3.55;;;7.50;99.90;;;;;;5085419;28;20214;-81
2023/01/14 02:54:02;;;;;;;16.63;3.58;;;7.40;99.90;;;;;;5088585;28;20202;-79
2023/01/14 02:56:29;;;;;;;14.70;6.07;;;7.40;99.90;;;;;;5086079;28;20242;-79
2023/01/14 02:59:23;;;;;;;14.68;3.58;;;7.50;99.90;;;;;;5081967;28;20219;-82
2023/01/14 03:02:03;;;;;;;5.30;3.33;;;7.30;99.90;;;;;;5092556;28;20234;-80
2023/01/14 03:04:43;;;;;;;6.88;3.72;;;7.30;99.90;;;;;;5085116;28;20230;-79
2023/01/14 03:07:17;;;;;;;11.75;3.63;;;7.40;99.90;;;;;;5093290;28;20238;-81
2023/01/14 03:09:58;;;;;;;6.03;2.97;;;7.40;99.90;;;;;;5080460;28;20289;-79
2023/01/14 03:12:35;;;;;;;11.77;3.40;;;7.40;99.90;;;;;;5093253;28;20193;-79
2023/01/14 03:15:13;;;;;;;10.23;4.00;;;7.50;99.90;;;;;;5085996;28;20198;-83
2023/01/14 03:17:47;;;;;;;6.60;2.50;;;7.40;99.90;;;;;;5077117;28;20270;-81
2023/01/14 03:20:17;;;;;;;9.55;2.67;;;7.40;99.90;;;;;;5082193;28;20298;-80
2023/01/14 03:22:45;;;;;;;9.77;2.85;;;7.40;99.90;;;;;;5080016;28;20216;-81
2023/01/14 03:25:15;;;;;;;17.58;4.57;;;7.50;99.90;;;;;;5087158;28;20292;-81
2023/01/14 03:27:45;;;;;;;8.82;5.05;;;7.50;99.90;;;;;;5079010;28;20238;-80
2023/01/14 03:30:17;;;;;;;8.40;3.92;;;7.50;99.90;;;;;;5083883;28;20274;-81
2023/01/14 03:32:47;;;;;;;8.65;3.58;;;7.50;99.90;;;;;;5073049;28;20200;-80
2023/01/14 03:35:19;;;;;;;13.60;4.47;;;7.50;99.90;;;;;;5085767;28;20191;-80
2023/01/14 03:37:50;;;;;;;16.15;4.30;;;7.50;99.90;;;;;;5084462;28;20271;-80
2023/01/14 03:40:20;;;;;;;9.45;2.63;;;7.50;99.90;;;;;;5082353;28;20215;-80
2023/01/14 03:42:51;;;;;;;7.97;2.90;;;7.50;99.90;;;;;;5087133;28;20262;-80
2023/01/14 03:45:23;;;;;;;7.78;4.15;;;7.50;99.90;;;;;;5085407;28;20223;-81
2023/01/14 03:47:51;;;;;;;18.77;5.03;;;7.50;99.90;;;;;;5090406;28;20726;-81
2023/01/14 03:50:19;;;;;;;10.30;3.53;;;7.60;99.90;;;;;;5089567;28;20227;-79
2023/01/14 03:52:57;;;;;;;17.95;3.85;;;7.60;99.90;;;;;;5088492;28;20225;-80
2023/01/14 03:55:31;;;;;;;13.68;3.30;;;7.60;99.90;;;;;;5086386;28;20190;-77
2023/01/14 03:58:05;;;;;;;7.40;3.50;;;7.60;99.90;;;;;;5093399;28;20254;-79
2023/01/14 04:00:37;;;;;;;11.93;3.55;;;7.70;99.90;;;;;;5098480;28;20206;-81
2023/01/14 04:03:09;;;;;;;10.82;3.40;;;7.80;99.90;;;;;;5097710;28;20261;-78
2023/01/14 04:05:37;;;;;;;8.23;4.35;;;7.70;99.90;;;;;;5093061;28;20210;-82
2023/01/14 04:08:05;;;;;;;10.00;3.45;;;7.70;99.90;;;;;;5100017;28;20205;-77
2023/01/14 04:10:32;;;;;;;11.32;4.22;;;7.70;99.90;;;;;;5096743;28;20293;-79
2023/01/14 04:15:44;;;;;;;24.27;5.95;;;7.70;99.90;;;;;;5094591;28;20257;-83
2023/01/14 04:18:12;;;;;;;10.60;3.28;;;7.70;99.90;;;;;;5091812;28;20207;-83
2023/01/14 04:20:39;;;;;;;8.95;2.75;;;7.70;99.90;;;;;;5086640;28;20209;-83
2023/01/14 04:23:06;;;;;;;8.77;3.78;;;7.70;99.90;;;;;;5091227;28;20236;-84
2023/01/14 04:25:33;;;;;;;13.32;3.72;;;7.70;99.90;;;;;;5088909;28;20311;-84
2023/01/14 04:27:59;;;;;;;13.20;3.78;;;7.70;99.90;;;;;;5091812;28;20262;-82
2023/01/14 04:30:26;;;;;;;8.55;3.10;;;7.80;99.90;;;;;;5095992;28;20218;-79
2023/01/14 04:32:53;;;;;;;11.27;3.92;;;7.70;99.90;;;;;;5085419;28;20230;-84
2023/01/14 04:35:21;;;;;;;9.70;2.97;;;7.70;99.90;;;;;;5083552;28;20202;-83
2023/01/14 04:37:50;;;;;;;9.88;2.60;;;7.70;99.90;;;;;;5085548;28;20279;-84
2023/01/14 04:40:18;;;;;;;8.25;2.75;;;7.80;99.90;;;;;;5089067;28;20199;-82
2023/01/14 04:42:44;;;;;;;12.85;4.10;;;7.80;99.90;;;;;;5085096;28;20214;-83
2023/01/14 04:45:12;;;;;;;8.52;2.38;;;7.80;99.90;;;;;;5091029;28;20253;-79
2023/01/14 04:47:39;;;;;;;9.75;2.47;;;7.90;99.90;;;;;;5090439;28;20183;-78
2023/01/14 04:52:48;;;;;;;5.43;2.05;;;7.80;99.90;;;;;;5087003;28;20197;-82
2023/01/14 04:55:15;;;;;;;9.35;3.90;;;7.80;99.90;;;;;;5088469;28;20266;-82
2023/01/14 04:57:42;;;;;;;12.00;5.10;;;7.80;99.90;;;;;;5090080;28;20227;-81
2023/01/14 05:00:10;;;;;;;16.20;3.65;;;7.80;99.90;;;;;;5090424;28;20254;-82
2023/01/14 05:02:37;;;;;;;19.33;3.35;;;7.80;99.90;;;;;;5090710;28;20715;-83
2023/01/14 05:05:04;;;;;;;12.15;3.30;;;7.80;99.90;;;;;;5091379;28;20211;-78
2023/01/14 05:07:31;;;;;;;7.70;2.70;;;7.70;99.90;;;;;;5096476;28;20222;-83
2023/01/14 05:09:59;;;;;;;13.25;3.15;;;7.70;99.90;;;;;;5099289;28;20233;-80
2023/01/14 05:12:26;;;;;;;12.57;3.60;;;7.60;99.90;;;;;;5097934;28;20215;-79
2023/01/14 05:14:53;;;;;;;13.75;3.90;;;7.60;99.90;;;;;;5093766;28;20244;-82
2023/01/14 05:17:20;;;;;;;16.40;4.70;;;7.60;99.90;;;;;;5098819;28;20260;-82
2023/01/14 05:19:47;;;;;;;6.40;3.80;;;7.60;99.90;;;;;;5093605;28;20305;-81
2023/01/14 05:22:14;;;;;;;16.40;5.00;;;7.50;99.90;;;;;;5092064;28;20265;-82
2023/01/14 05:24:41;;;;;;;17.42;3.70;;;7.60;99.90;;;;;;5089289;28;20246;-82
2023/01/14 05:27:10;;;;;;;17.75;5.13;;;7.60;99.90;;;;;;5093243;28;20231;-79
2023/01/14 05:29:38;;;;;;;16.30;5.97;;;7.60;99.90;;;;;;5082926;28;20262;-81
2023/01/14 05:32:05;;;;;;;12.10;5.57;;;7.60;99.90;;;;;;5089445;28;20202;-80
2023/01/14 05:34:32;;;;;;;10.27;4.70;;;7.70;99.90;;;;;;5099704;28;20199;-82
2023/01/14 05:36:58;;;;;;;12.77;4.15;;;7.60;99.90;;;;;;5092497;28;20294;-83
2023/01/14 05:39:25;;;;;;;14.43;5.57;;;7.60;99.90;;;;;;5089887;28;20753;-82
2023/01/14 05:47:22;;;;;;;27.15;6.25;;;7.40;99.90;;;;;;5093731;28;20233;-79
2023/01/14 05:49:49;;;;;;;10.23;6.00;;;7.30;99.90;;;;;;5102362;28;20222;-78
2023/01/14 05:52:16;;;;;;;12.98;4.93;;;7.20;99.90;;;;;;5105591;28;20185;-80
2023/01/14 05:54:43;;;;;;;15.48;7.18;;;7.20;99.90;;;;;;5084694;28;20222;-81
2023/01/14 05:57:13;;;;;;;18.20;5.70;;;7.20;99.90;;;;;;5090442;28;20252;-81
2023/01/14 05:59:43;;;;;;;15.07;5.50;;;7.20;99.90;;;;;;5085808;28;20206;-81
2023/01/14 06:07:44;;;;;;;16.67;6.95;;;7.10;99.90;;;;;;5027321;28;20224;-80
2023/01/14 06:10:11;;;;;;;16.67;6.85;;;7.10;99.90;;;;;;5089063;28;20896;-81
2023/01/14 06:12:57;;;;;;;19.17;5.93;;;7.10;99.90;;;;;;5085810;28;20210;-83
2023/01/14 06:15:29;;;;;;;10.82;4.50;;;7.10;99.90;;;;;;5086416;28;20238;-81
2023/01/14 06:17:58;;;;;;;18.67;5.50;;;7.10;99.90;;;;;;5080314;28;20291;-82
2023/01/14 06:20:25;;;;;;;24.42;5.57;;;7.20;99.90;;;;;;5082628;28;20221;-83
2023/01/14 06:22:55;;;;;;;12.02;5.40;;;7.10;99.90;;;;;;5089405;28;20241;-78
2023/01/14 06:25:22;;;;;;;18.85;5.35;;;7.20;99.90;;;;;;5093146;28;20248;-78
2023/01/14 06:27:49;;;;;;;21.10;6.97;;;7.10;99.90;;;;;;5085866;28;20223;-80
2023/01/14 06:30:16;;;;;;;18.27;5.80;;;7.10;99.90;;;;;;5090796;28;20204;-82
2023/01/14 06:32:45;;;;;;;16.00;5.85;;;7.10;99.90;;;;;;5089804;28;20263;-81
2023/01/14 06:35:11;;;;;;;22.65;6.63;;;7.20;99.90;;;;;;5092715;28;20214;-80
2023/01/14 06:37:38;;;;;;;18.98;7.78;;;7.20;99.90;;;;;;5086117;28;20222;-81
2023/01/14 06:40:06;;;;;;;19.13;6.65;;;7.20;99.90;;;;;;5080066;28;20207;-82
2023/01/14 06:42:33;;;;;;;21.08;5.43;;;7.10;99.90;;;;;;5088746;28;20233;-80
2023/01/14 06:45:00;;;;;;;22.40;5.63;;;7.00;99.90;;;;;;5090454;28;20282;-82
2023/01/14 06:47:26;;;;;;;16.48;6.28;;;7.20;99.90;;;;;;5081024;28;20317;-82
2023/01/14 06:49:56;;;;;;;15.68;5.43;;;7.10;99.90;;;;;;5080863;28;20263;-82
2023/01/14 06:52:23;;;;;;;19.95;6.82;;;7.10;99.90;;;;;;5079418;28;20207;-84
2023/01/14 06:54:51;;;;;;;16.33;5.60;;;7.10;99.90;;;;;;5083501;28;20245;-80
2023/01/14 06:57:18;;;;;;;19.35;4.63;;;7.10;99.90;;;;;;5078174;28;20224;-84
2023/01/14 06:59:45;;;;;;;15.75;5.53;;;7.10;99.90;;;;;;5080348;28;20267;-80
2023/01/14 07:02:13;;;;;;;14.02;5.82;;;7.20;99.90;;;;;;5083832;28;20223;-80
2023/01/14 07:04:42;;;;;;;18.77;6.60;;;7.10;99.90;;;;;;5083183;28;20250;-81
2023/01/14 07:07:11;;;;;;;20.73;7.18;;;7.00;99.90;;;;;;5096120;28;20221;-80
2023/01/14 07:09:38;;;;;;;17.33;5.50;;;7.10;99.90;;;;;;5094152;28;20226;-80
2023/01/14 07:12:05;;;;;;;14.85;7.25;;;7.10;99.90;;;;;;5091060;28;20183;-80
2023/01/14 07:14:32;;;;;;;22.83;6.55;;;7.00;99.90;;;;;;5089209;28;20241;-83
2023/01/14 07:17:01;;;;;;;18.60;6.60;;;7.00;99.90;;;;;;5085295;28;20203;-81
2023/01/14 07:19:28;;;;;;;12.75;5.13;;;7.00;99.90;;;;;;5079709;28;20258;-80
2023/01/14 07:21:55;;;;;;;13.95;6.85;;;7.10;99.90;;;;;;5092701;28;20213;-79
2023/01/14 07:24:23;;;;;;;24.25;6.63;;;7.10;99.90;;;;;;5095883;28;20206;-80
2023/01/14 07:26:50;;;;;;;25.00;5.93;;;7.20;99.90;;;;;;5094832;28;20262;-79
2023/01/14 07:29:16;;;;;;;24.70;6.13;;;7.30;99.90;;;;;;5088873;28;20275;-83
2023/01/14 07:31:43;;;;;;;23.70;5.82;;;7.40;99.90;;;;;;5093247;28;20209;-82
2023/01/14 07:34:10;;;;;;;24.23;6.90;;;7.30;99.90;;;;;;5098412;28;20222;-77
2023/01/14 07:36:37;;;;;;;32.92;10.23;;;7.30;99.90;;;;;;5079218;28;20286;-81
2023/01/14 07:39:04;;;;;;;19.63;6.78;;;7.30;99.90;;;;;;5081408;28;20226;-80
2023/01/14 07:41:32;;;;;;;20.15;6.43;;;7.20;99.90;;;;;;5088405;28;20250;-82
2023/01/14 07:44:00;;;;;;;24.70;9.90;;;7.20;99.90;;;;;;5090045;28;20267;-83
2023/01/14 07:46:27;;;;;;;20.73;8.07;;;7.20;99.90;;;;;;5089817;28;20230;-82
2023/01/14 07:48:54;;;;;;;18.30;7.63;;;7.20;99.90;;;;;;5101135;28;20262;-79
2023/01/14 07:51:23;;;;;;;30.85;8.50;;;7.20;99.90;;;;;;5103264;28;20197;-76
2023/01/14 07:53:50;;;;;;;20.88;7.57;;;7.10;99.90;;;;;;5099953;28;20253;-80
2023/01/14 07:56:18;;;;;;;19.63;8.18;;;7.20;99.90;;;;;;5093009;28;20282;-79
2023/01/14 07:58:48;;;;;;;23.73;8.60;;;7.20;99.90;;;;;;5095825;28;20283;-86
2023/01/14 08:01:16;;;;;;;24.48;10.20;;;7.30;99.90;;;;;;5096561;28;20313;-80
2023/01/14 08:06:38;;;;;;;;;;;;;;;;;;;;;
2023/01/14 08:09:06;;;;;;;27.40;7.40;;;7.30;99.90;;;;;;5087237;28;20640;-83
2023/01/14 08:11:33;;;;;;;23.70;7.88;;;7.40;99.90;;;;;;5084561;28;20226;-83
2023/01/14 08:14:01;;;;;;;22.40;7.35;;;7.50;99.90;;;;;;5087577;28;20195;-84
2023/01/14 08:16:28;;;;;;;24.63;7.57;;;7.60;99.90;;;;;;5084339;28;20258;-84
2023/01/14 08:18:55;;;;;;;20.85;8.13;;;7.50;99.90;;;;;;5084604;28;20222;-84
2023/01/14 08:21:23;;;;;;;22.90;7.82;;;7.50;99.90;;;;;;5087240;28;20270;-82
2023/01/14 08:23:50;;;;;;;22.23;7.25;;;7.60;99.90;;;;;;5093652;28;20211;-84
2023/01/14 08:26:16;;;;;;;25.27;10.02;;;7.50;99.90;;;;;;5092636;28;20277;-85
2023/01/14 08:28:43;;;;;;;16.52;8.23;;;7.50;99.90;;;;;;5089895;28;20418;-81
2023/01/14 08:31:14;;;;;;;33.03;8.45;;;7.60;99.90;;;;;;5090432;28;20262;-85
2023/01/14 08:33:42;;;;;;;24.63;9.40;;;7.60;99.90;;;;;;5081967;28;20259;-81
2023/01/14 08:36:12;;;;;;;23.15;7.65;;;7.60;99.90;;;;;;5080743;28;20309;-79
2023/01/14 08:38:40;;;;;;;24.85;8.60;;;7.60;99.90;;;;;;5080400;28;20202;-83
2023/01/14 08:41:09;;;;;;;29.30;8.93;;;7.70;99.90;;;;;;5090456;28;20207;-83
2023/01/14 08:43:36;;;;;;;30.67;8.20;;;7.70;99.90;;;;;;5091189;28;20203;-86
2023/01/14 08:46:05;;;;;;;27.98;8.32;;;7.70;99.90;;;;;;5096199;28;20258;-79
2023/01/14 08:48:34;;;;;;;20.63;8.60;;;7.60;99.90;;;;;;5089376;28;20246;-79
2023/01/14 08:51:01;;;;;;;24.70;7.72;;;7.70;99.90;;;;;;5094793;28;20199;-77
2023/01/14 08:53:28;;;;;;;30.40;8.30;;;7.70;99.90;;;;;;5089356;28;20203;-78
2023/01/14 08:55:57;;;;;;;19.77;8.15;;;7.80;99.90;;;;;;5085291;28;20219;-81
2023/01/14 08:58:24;;;;;;;26.85;9.80;;;7.80;99.90;;;;;;5083556;28;20206;-81
2023/01/14 09:00:55;;;;;;;22.15;7.88;;;7.80;99.90;;;;;;5092199;28;20214;-79
2023/01/14 09:03:22;;;;;;;22.90;9.23;;;7.80;99.90;;;;;;5083820;28;20215;-80
2023/01/14 09:05:55;;;;;;;41.50;9.45;;;7.80;99.90;;;;;;5084249;28;20227;-81
2023/01/14 09:19:18;;;;;;;21.80;7.72;;;8.10;99.90;;;;;;5083387;28;20708;-82
2023/01/14 09:21:46;;;;;;;25.00;7.05;;;8.20;99.90;;;;;;5075390;28;20234;-81
2023/01/14 09:24:13;;;;;;;24.38;7.20;;;8.20;99.90;;;;;;5082316;28;20206;-77
2023/01/14 09:26:40;;;;;;;24.90;7.47;;;8.10;99.90;;;;;;5078803;28;20229;-82
2023/01/14 09:29:07;;;;;;;22.33;7.20;;;8.00;99.90;;;;;;5080667;28;20250;-80
2023/01/14 09:31:34;;;;;;;19.55;6.10;;;8.00;99.90;;;;;;5071661;28;20241;-80
2023/01/14 09:34:01;;;;;;;24.88;6.75;;;8.10;99.90;;;;;;5080853;28;20211;-81
2023/01/14 09:36:29;;;;;;;22.45;6.80;;;8.10;99.90;;;;;;5077224;28;20667;-79
2023/01/14 09:38:57;;;;;;;24.98;6.30;;;8.10;99.90;;;;;;5082233;28;20206;-79
2023/01/14 09:41:27;;;;;;;26.27;8.57;;;8.00;99.90;;;;;;5083553;28;20298;-79
2023/01/14 09:43:55;;;;;;;17.92;4.55;;;8.10;99.90;;;;;;5085455;28;20712;-81
2023/01/14 09:46:25;;;;;;;23.27;6.50;;;8.00;99.90;;;;;;5083410;28;20702;-82
2023/01/14 09:48:54;;;;;;;19.30;5.72;;;8.10;99.90;;;;;;5081622;28;20199;-81
2023/01/14 09:51:37;;;;;;;20.20;5.95;;;8.20;99.90;;;;;;5073889;28;20204;-80
2023/01/14 09:54:10;;;;;;;19.25;5.55;;;8.20;99.90;;;;;;5074695;28;20581;-79
2023/01/14 09:56:42;;;;;;;28.88;6.90;;;8.10;99.90;;;;;;5064151;28;20219;-81
2023/01/14 09:59:18;;;;;;;17.45;5.80;;;8.20;99.90;;;;;;5076429;28;20263;-80
2023/01/14 10:01:52;;;;;;;23.08;5.80;;;8.20;99.90;;;;;;5076972;28;20221;-80
2023/01/14 10:04:39;;;;;;;15.15;5.05;;;8.20;99.90;;;;;;5081429;28;20255;-79
2023/01/14 10:07:08;;;;;;;14.40;6.75;;;8.30;99.90;;;;;;5085598;28;20218;-81
2023/01/14 10:09:40;;;;;;;24.40;5.90;;;8.40;99.90;;;;;;5081625;28;20294;-79
2023/01/14 10:12:12;;;;;;;23.58;6.60;;;8.50;99.90;;;;;;5082566;28;20207;-78
2023/01/14 10:14:44;;;;;;;26.98;5.80;;;8.60;99.90;;;;;;5081628;28;20690;-82
2023/01/14 10:17:16;;;;;;;20.80;4.90;;;8.60;99.90;;;;;;5080198;28;20225;-78
2023/01/14 10:19:47;;;;;;;11.77;4.55;;;8.50;99.90;;;;;;5081716;28;20218;-82
2023/01/14 10:22:21;;;;;;;24.45;5.18;;;8.50;99.90;;;;;;5081774;28;20206;-82
2023/01/14 10:24:49;;;;;;;18.40;5.45;;;8.30;99.90;;;;;;5073576;28;20222;-84
2023/01/14 10:27:18;;;;;;;17.65;4.25;;;8.40;99.90;;;;;;5076844;28;20241;-81
2023/01/14 10:29:46;;;;;;;18.35;4.72;;;8.40;99.90;;;;;;5077643;28;20641;-79
2023/01/14 10:32:15;;;;;;;13.52;3.47;;;8.40;99.90;;;;;;5073850;28;20805;-83
2023/01/14 10:34:44;;;;;;;14.45;3.20;;;8.50;99.90;;;;;;5076795;28;20210;-82
2023/01/14 10:37:12;;;;;;;14.75;3.80;;;8.50;99.90;;;;;;5079693;28;20218;-80
2023/01/14 10:39:45;;;;;;;14.63;3.75;;;8.40;99.90;;;;;;5084174;28;20191;-80
2023/01/14 10:42:15;;;;;;;17.15;5.80;;;8.20;99.90;;;;;;5068759;28;20203;-82
2023/01/14 10:44:43;;;;;;;15.63;5.30;;;8.20;99.90;;;;;;5075133;28;20232;-77
2023/01/14 10:47:13;;;;;;;14.65;3.97;;;8.10;99.90;;;;;;5077231;28;20250;-81
2023/01/14 10:49:44;;;;;;;17.83;4.63;;;8.10;99.90;;;;;;5086470;28;20195;-81
2023/01/14 10:52:25;;;;;;;12.45;3.72;;;8.00;99.90;;;;;;5087629;28;20214;-80
2023/01/14 10:55:01;;;;;;;21.27;4.75;;;8.00;99.90;;;;;;5089644;28;20266;-77
2023/01/14 10:57:32;;;;;;;15.02;3.67;;;8.00;99.90;;;;;;5082854;28;20276;-81
2023/01/14 10:59:59;;;;;;;14.30;5.82;;;8.00;99.90;;;;;;5083773;28;20272;-80
2023/01/14 11:02:35;;;;;;;12.90;3.80;;;7.90;99.90;;;;;;5092245;28;20234;-85
2023/01/14 11:05:04;;;;;;;17.08;4.45;;;7.90;99.90;;;;;;5086609;28;20275;-85
2023/01/14 11:07:33;;;;;;;16.45;6.35;;;8.00;99.90;;;;;;5083086;28;20237;-81
2023/01/14 11:10:02;;;;;;;21.67;6.10;;;8.10;99.90;;;;;;5080915;28;20234;-83
2023/01/14 11:12:32;;;;;;;12.13;4.10;;;7.80;99.90;;;;;;5095050;28;20221;-81
2023/01/14 11:15:00;;;;;;;15.43;4.30;;;7.80;99.90;;;;;;5085246;28;20716;-82
2023/01/14 11:17:29;;;;;;;13.75;3.70;;;7.70;99.90;;;;;;5093755;28;20286;-82
2023/01/14 11:20:21;;;;;;;16.27;4.60;;;7.60;99.90;;;;;;5098035;28;20190;-78
2023/01/14 11:22:56;;;;;;;13.73;5.63;;;7.60;99.90;;;;;;5093452;28;20258;-80
2023/01/14 11:25:24;;;;;;;12.40;3.55;;;7.60;99.90;;;;;;5096622;28;20191;-81
2023/01/14 11:27:53;;;;;;;11.65;3.17;;;7.60;99.90;;;;;;5099981;28;20206;-79
2023/01/14 11:30:23;;;;;;;14.05;3.75;;;7.50;99.90;;;;;;5099792;28;20211;-79
2023/01/14 11:32:52;;;;;;;16.25;3.40;;;7.50;99.90;;;;;;5097621;28;20191;-78
2023/01/14 11:35:23;;;;;;;10.85;3.58;;;7.60;99.90;;;;;;5091579;28;20282;-80
2023/01/14 11:37:53;;;;;;;9.48;2.95;;;7.60;99.90;;;;;;5089477;28;20266;-81
2023/01/14 11:40:24;;;;;;;12.98;3.50;;;7.50;99.90;;;;;;5079054;28;20650;-80
2023/01/14 11:42:52;;;;;;;14.20;3.15;;;7.50;99.90;;;;;;5085484;28;20218;-80
2023/01/14 11:45:21;;;;;;;13.65;3.38;;;7.60;99.90;;;;;;5088897;28;20195;-77
2023/01/14 11:47:49;;;;;;;11.20;2.70;;;7.60;99.90;;;;;;5085414;28;20273;-79
2023/01/14 11:50:19;;;;;;;10.63;4.28;;;7.60;99.90;;;;;;5084372;28;20207;-80
2023/01/14 11:53:00;;;;;;;13.38;4.18;;;7.50;99.90;;;;;;5084154;28;20213;-81
2023/01/14 11:55:28;;;;;;;18.73;4.10;;;7.50;99.90;;;;;;5076641;28;20210;-81
2023/01/14 11:58:03;;;;;;;11.68;4.25;;;7.50;99.90;;;;;;5081809;28;20205;-82
2023/01/14 12:00:31;;;;;;;17.48;3.25;;;7.40;99.90;;;;;;5078959;28;20213;-81
2023/01/14 12:03:02;;;;;;;14.88;4.03;;;7.50;99.90;;;;;;5084079;28;20195;-79
2023/01/14 12:05:29;;;;;;;9.15;3.13;;;7.40;99.90;;;;;;5085978;28;20233;-82
2023/01/14 12:07:59;;;;;;;7.00;2.85;;;7.50;99.90;;;;;;5088764;28;20234;-79
2023/01/14 12:10:30;;;;;;;10.77;2.80;;;7.50;99.90;;;;;;5102647;28;20198;-80
2023/01/14 12:18:44;;;;;;;6.97;2.80;;;7.50;99.90;;;;;;5084531;28;20218;-80
2023/01/14 12:21:15;;;;;;;13.48;2.95;;;7.50;99.90;;;;;;5079567;28;20215;-80
2023/01/14 12:23:47;;;;;;;15.15;3.25;;;7.60;99.90;;;;;;5079329;28;20207;-79
2023/01/14 12:26:20;;;;;;;9.55;2.83;;;7.60;99.90;;;;;;5082048;28;20292;-78
2023/01/14 12:28:56;;;;;;;8.82;3.42;;;7.60;99.90;;;;;;5080262;28;20217;-81
2023/01/14 12:31:26;;;;;;;8.65;2.83;;;7.60;99.90;;;;;;5075544;28;20207;-81
2023/01/14 12:33:59;;;;;;;6.93;3.17;;;7.70;99.90;;;;;;5080868;28;20217;-78
2023/01/14 12:36:30;;;;;;;7.00;2.08;;;7.70;99.90;;;;;;5083201;28;20242;-82
2023/01/14 12:47:33;;;;;;;6.35;2.67;;;7.90;99.90;;;;;;5106148;28;20233;-80
2023/01/14 12:50:01;;;;;;;5.10;2.30;;;7.90;99.90;;;;;;5089346;28;20198;-82
2023/01/14 12:52:32;;;;;;;4.45;2.92;;;7.90;99.90;;;;;;5091643;28;20574;-80
2023/01/14 12:55:00;;;;;;;13.10;3.10;;;8.00;99.90;;;;;;5084811;28;20199;-80
2023/01/14 12:57:28;;;;;;;11.90;2.92;;;8.00;99.90;;;;;;5084861;28;20306;-80
2023/01/14 13:00:04;;;;;;;8.60;4.75;;;8.00;99.90;;;;;;5094774;28;20222;-82
2023/01/14 13:02:35;;;;;;;3.88;2.15;;;8.00;99.90;;;;;;5076249;28;20204;-79
2023/01/14 13:05:05;;;;;;;9.88;2.90;;;8.00;99.90;;;;;;5093688;28;20246;-76
2023/01/14 13:07:36;;;;;;;10.73;2.80;;;8.00;99.90;;;;;;5078680;28;20309;-80
2023/01/14 13:10:07;;;;;;;8.27;3.88;;;8.00;99.90;;;;;;5079984;28;20301;-77
2023/01/14 13:12:36;;;;;;;11.63;4.65;;;8.00;99.90;;;;;;5066965;28;20640;-80
2023/01/14 13:15:08;;;;;;;9.07;3.45;;;8.00;99.90;;;;;;5081184;28;20217;-80
2023/01/14 13:17:37;;;;;;;9.77;3.33;;;8.00;99.90;;;;;;5086826;28;20282;-84
2023/01/14 13:20:26;;;;;;;11.35;2.70;;;7.90;99.90;;;;;;5083093;28;20290;-79
2023/01/14 13:22:54;;;;;;;7.82;2.75;;;7.90;99.90;;;;;;5073496;28;20290;-78
2023/01/14 13:25:42;;;;;;;4.85;2.75;;;7.90;99.90;;;;;;5070252;28;20263;-81
2023/01/14 13:28:54;;;;;;;6.72;2.40;;;7.80;99.90;;;;;;5080865;28;20260;-81
2023/01/14 13:31:34;;;;;;;11.68;3.08;;;7.80;99.90;;;;;;5040925;28;20200;-80
2023/01/14 13:34:40;;;;;;;12.65;3.00;;;7.80;99.90;;;;;;5084158;28;20599;-80
2023/01/14 13:37:36;;;;;;;7.25;3.75;;;7.80;99.90;;;;;;5066940;28;20219;-80
2023/01/14 13:40:15;;;;;;;17.05;3.83;;;7.70;99.90;;;;;;5080282;28;20199;-79
2023/01/14 13:42:42;;;;;;;10.43;4.85;;;7.80;99.90;;;;;;5096304;28;20258;-78
2023/01/14 13:45:29;;;;;;;11.40;3.15;;;7.80;99.90;;;;;;5091587;28;20263;-79
2023/01/14 13:48:00;;;;;;;7.28;3.28;;;7.80;99.90;;;;;;5088255;28;20207;-82
2023/01/14 13:50:29;;;;;;;14.23;3.97;;;7.80;99.90;;;;;;5086222;28;20229;-80
2023/01/14 13:53:02;;;;;;;11.45;5.35;;;7.80;99.90;;;;;;5089639;28;20241;-82